Time;durP1;ratioP1;P1;durP2;ratioP2;P2;SDS_P1;SDS_P2;PMS_P1;PMS_P2;Temp;Humidity;BMP_temperature;BMP_pressure;BME280_temperature;BME280_humidity;BME280_pressure;Samples;Min_cycle;Max_cycle;Signal;HPM_P1;HPM_P2
2022/03/27 00:01:06;;;;;;;6.93;5.60;;;9.10;99.90;;;;;;4946225;29;20194;-76
2022/03/27 00:03:34;;;;;;;7.07;6.37;;;9.10;99.90;;;;;;4945444;29;20209;-78
2022/03/27 00:06:00;;;;;;;7.43;5.90;;;9.10;99.90;;;;;;4945203;28;20297;-77
2022/03/27 00:08:27;;;;;;;7.30;5.93;;;9.20;99.90;;;;;;4945778;29;20212;-78
2022/03/27 00:13:40;;;;;;;7.00;6.03;;;9.20;99.90;;;;;;4945375;28;20387;-79
2022/03/27 00:16:09;;;;;;;7.50;6.20;;;9.10;99.90;;;;;;4945611;29;20208;-78
2022/03/27 00:18:36;;;;;;;7.33;6.47;;;9.10;99.90;;;;;;4944733;29;20913;-78
2022/03/27 00:21:03;;;;;;;7.13;6.43;;;9.00;99.90;;;;;;4945424;28;20221;-79
2022/03/27 00:23:30;;;;;;;6.40;5.30;;;9.00;99.90;;;;;;4945836;29;20239;-79
2022/03/27 00:25:57;;;;;;;5.70;5.10;;;8.90;99.90;;;;;;4945176;29;20201;-78
2022/03/27 00:28:25;;;;;;;6.60;5.83;;;8.90;99.90;;;;;;4944938;28;20209;-79
2022/03/27 00:30:53;;;;;;;6.13;4.93;;;8.80;99.90;;;;;;4944758;29;20710;-79
2022/03/27 00:33:20;;;;;;;5.77;5.07;;;8.90;99.90;;;;;;4944388;28;20220;-78
2022/03/27 00:35:47;;;;;;;6.43;5.70;;;8.80;99.90;;;;;;4944633;28;20220;-78
2022/03/27 00:38:13;;;;;;;5.93;5.33;;;8.80;99.90;;;;;;4944958;28;21006;-78
2022/03/27 00:40:41;;;;;;;6.10;5.50;;;8.80;99.90;;;;;;4945330;29;20209;-78
2022/03/27 00:43:10;;;;;;;5.97;5.27;;;8.80;99.90;;;;;;4944945;28;20201;-78
2022/03/27 00:45:37;;;;;;;6.17;5.57;;;8.80;99.90;;;;;;4944793;29;20213;-78
2022/03/27 00:48:06;;;;;;;5.90;5.30;;;8.80;99.90;;;;;;4965762;28;20207;-79
2022/03/27 00:50:35;;;;;;;6.03;5.43;;;8.80;99.90;;;;;;4983601;28;20660;-78
2022/03/27 00:53:01;;;;;;;9.17;5.93;;;8.80;99.90;;;;;;4957418;28;20217;-78
2022/03/27 00:55:28;;;;;;;6.43;5.73;;;8.80;99.90;;;;;;4945492;29;20292;-78
2022/03/27 00:57:55;;;;;;;5.97;5.20;;;8.70;99.90;;;;;;4945105;28;20232;-77
2022/03/27 01:00:43;;;;;;;5.63;5.10;;;8.70;99.90;;;;;;4944175;28;20394;-77
2022/03/27 01:03:13;;;;;;;6.40;5.43;;;8.70;99.90;;;;;;4964311;28;20263;-77
2022/03/27 01:05:41;;;;;;;5.37;4.30;;;8.70;99.90;;;;;;4964868;28;20215;-77
2022/03/27 01:08:10;;;;;;;5.53;4.60;;;8.60;99.90;;;;;;4953344;28;20213;-79
2022/03/27 01:10:37;;;;;;;5.40;4.90;;;8.60;99.90;;;;;;4945274;28;20221;-77
2022/03/27 01:13:08;;;;;;;4.70;4.20;;;8.50;99.90;;;;;;4950895;28;20216;-76
2022/03/27 01:15:41;;;;;;;5.00;4.50;;;8.40;99.90;;;;;;4962911;28;20224;-78
2022/03/27 01:18:08;;;;;;;4.93;4.43;;;8.40;99.90;;;;;;4950134;28;20897;-77
2022/03/27 01:20:39;;;;;;;4.33;3.70;;;8.40;99.90;;;;;;4945310;29;20224;-78
2022/03/27 01:23:09;;;;;;;5.13;4.63;;;8.40;99.90;;;;;;4943948;29;20443;-78
2022/03/27 01:25:36;;;;;;;5.20;4.70;;;8.40;99.90;;;;;;4944653;28;20221;-78
2022/03/27 01:28:03;;;;;;;5.47;4.63;;;8.30;99.90;;;;;;4944809;29;20822;-78
2022/03/27 01:30:30;;;;;;;5.57;4.97;;;8.30;99.90;;;;;;4943954;29;20213;-78
2022/03/27 01:32:57;;;;;;;5.70;5.10;;;8.30;99.90;;;;;;4944461;28;20217;-79
2022/03/27 01:35:24;;;;;;;6.37;5.40;;;8.30;99.90;;;;;;4944493;29;20221;-77
2022/03/27 01:37:53;;;;;;;7.43;6.00;;;8.30;99.90;;;;;;4944386;29;20221;-78
2022/03/27 01:40:21;;;;;;;7.17;5.77;;;8.30;99.90;;;;;;4944257;28;20244;-77
2022/03/27 01:42:49;;;;;;;7.20;6.20;;;8.30;99.90;;;;;;4944530;29;20681;-77
2022/03/27 01:45:16;;;;;;;7.77;6.03;;;8.20;99.90;;;;;;4945998;28;20212;-77
2022/03/27 01:47:43;;;;;;;6.00;5.40;;;8.20;99.90;;;;;;4973491;28;20212;-78
2022/03/27 01:50:10;;;;;;;6.53;5.67;;;8.30;99.90;;;;;;4986245;28;20208;-77
2022/03/27 01:52:37;;;;;;;7.43;6.10;;;8.30;99.90;;;;;;4974518;28;20220;-78
2022/03/27 01:55:07;;;;;;;6.73;6.03;;;8.30;99.90;;;;;;4948403;29;20213;-78
2022/03/27 01:57:34;;;;;;;8.00;7.20;;;8.20;99.90;;;;;;4946869;28;20316;-79
2022/03/27 02:00:04;;;;;;;9.83;7.43;;;8.20;99.90;;;;;;4946508;28;20249;-78
2022/03/27 02:02:30;;;;;;;8.43;7.33;;;8.20;99.90;;;;;;4947472;29;20311;-77
2022/03/27 02:04:57;;;;;;;8.23;6.80;;;8.30;99.90;;;;;;4945771;28;20213;-78
2022/03/27 02:07:24;;;;;;;8.23;6.60;;;8.30;99.90;;;;;;4947699;29;20212;-78
2022/03/27 02:09:53;;;;;;;8.97;7.30;;;8.30;99.90;;;;;;4947858;28;20216;-78
2022/03/27 02:12:22;;;;;;;9.17;7.90;;;8.30;99.90;;;;;;4946753;28;20213;-78
2022/03/27 02:14:48;;;;;;;7.33;6.00;;;8.20;99.90;;;;;;4947062;28;20285;-78
2022/03/27 02:17:15;;;;;;;8.23;6.40;;;8.20;99.90;;;;;;4946816;29;20217;-78
2022/03/27 02:19:42;;;;;;;8.77;6.93;;;8.10;99.90;;;;;;4945504;28;20241;-77
2022/03/27 02:22:09;;;;;;;8.63;6.83;;;8.10;99.90;;;;;;4947255;29;20217;-77
2022/03/27 02:24:35;;;;;;;10.00;7.90;;;8.10;99.90;;;;;;4946660;28;20241;-78
2022/03/27 02:27:02;;;;;;;9.13;6.83;;;8.10;99.90;;;;;;4946950;29;20210;-78
2022/03/27 02:29:32;;;;;;;8.53;6.60;;;8.10;99.90;;;;;;4947107;28;20628;-77
2022/03/27 02:31:59;;;;;;;7.37;6.17;;;8.20;99.90;;;;;;4947175;28;20252;-77
2022/03/27 02:34:26;;;;;;;8.50;6.50;;;8.10;99.90;;;;;;4946990;29;20224;-78
2022/03/27 02:36:53;;;;;;;9.67;7.00;;;8.00;99.90;;;;;;4947133;29;20217;-77
2022/03/27 02:39:20;;;;;;;8.30;6.47;;;8.00;99.90;;;;;;4946785;28;20237;-78
2022/03/27 02:41:47;;;;;;;9.03;7.10;;;8.00;99.90;;;;;;4946844;29;20217;-78
2022/03/27 02:44:14;;;;;;;8.73;6.97;;;7.90;99.90;;;;;;4946278;28;20228;-78
2022/03/27 02:46:42;;;;;;;9.10;6.97;;;7.90;99.90;;;;;;4946664;29;20209;-78
2022/03/27 02:49:09;;;;;;;9.50;7.63;;;7.90;99.90;;;;;;4968585;28;20688;-77
2022/03/27 02:51:36;;;;;;;8.17;6.93;;;7.90;99.90;;;;;;4946953;29;20751;-78
2022/03/27 02:54:04;;;;;;;8.93;6.87;;;7.90;99.90;;;;;;4946243;28;20221;-78
2022/03/27 02:56:32;;;;;;;8.50;6.73;;;7.90;99.90;;;;;;4946282;29;20232;-78
2022/03/27 02:58:59;;;;;;;8.40;6.70;;;7.90;99.90;;;;;;4945577;28;20328;-78
2022/03/27 03:01:26;;;;;;;7.27;5.87;;;7.90;99.90;;;;;;4946034;29;20944;-78
2022/03/27 03:03:55;;;;;;;8.00;5.83;;;7.90;99.90;;;;;;4946672;28;20213;-77
2022/03/27 03:06:24;;;;;;;8.90;6.07;;;7.90;99.90;;;;;;4947027;29;20533;-78
2022/03/27 03:08:51;;;;;;;7.53;5.70;;;7.70;99.90;;;;;;4945693;28;20217;-78
2022/03/27 03:11:20;;;;;;;8.47;6.40;;;7.80;99.90;;;;;;4946276;29;20524;-77
2022/03/27 03:13:47;;;;;;;8.67;6.43;;;7.70;99.90;;;;;;4954030;28;20216;-78
2022/03/27 03:16:16;;;;;;;8.17;5.83;;;7.80;99.90;;;;;;4961194;28;20221;-78
2022/03/27 03:18:44;;;;;;;10.53;6.77;;;7.70;99.90;;;;;;4967055;28;20211;-78
2022/03/27 03:21:12;;;;;;;8.60;6.57;;;7.70;99.90;;;;;;4961228;28;20217;-77
2022/03/27 03:23:40;;;;;;;8.47;6.80;;;7.70;99.90;;;;;;4953077;28;20213;-77
2022/03/27 03:26:07;;;;;;;8.07;6.70;;;7.70;99.90;;;;;;4956710;28;20237;-77
2022/03/27 03:28:34;;;;;;;8.43;6.67;;;7.70;99.90;;;;;;4961805;28;20220;-78
2022/03/27 03:31:00;;;;;;;9.47;7.30;;;7.60;99.90;;;;;;4957828;28;20228;-76
2022/03/27 03:33:28;;;;;;;9.17;6.97;;;7.70;99.90;;;;;;4963082;28;20213;-78
2022/03/27 03:35:55;;;;;;;9.23;7.27;;;7.70;99.90;;;;;;4960739;28;20224;-79
2022/03/27 03:38:23;;;;;;;9.50;7.87;;;7.70;99.90;;;;;;4958012;28;20235;-78
2022/03/27 03:40:50;;;;;;;10.17;7.80;;;7.80;99.90;;;;;;4958442;28;20327;-77
2022/03/27 03:43:19;;;;;;;8.77;7.27;;;7.80;99.90;;;;;;4961909;28;20239;-77
2022/03/27 03:45:47;;;;;;;7.93;7.00;;;7.70;99.90;;;;;;4959848;28;22033;-79
2022/03/27 03:48:14;;;;;;;9.03;7.63;;;7.70;99.90;;;;;;4967265;28;20227;-80
2022/03/27 03:50:41;;;;;;;9.67;7.67;;;7.70;99.90;;;;;;4956870;28;20216;-80
2022/03/27 03:53:08;;;;;;;9.70;7.60;;;7.70;99.90;;;;;;4964519;28;20229;-77
2022/03/27 03:55:38;;;;;;;8.73;6.77;;;7.70;99.90;;;;;;4948900;28;20217;-78
2022/03/27 03:58:05;;;;;;;9.23;7.07;;;7.70;99.90;;;;;;4949075;28;20265;-77
2022/03/27 04:00:32;;;;;;;11.10;7.37;;;7.80;99.90;;;;;;4947194;29;20451;-77
2022/03/27 04:03:00;;;;;;;9.67;7.10;;;7.70;99.90;;;;;;4946147;29;20606;-79
2022/03/27 04:05:27;;;;;;;10.80;7.67;;;7.70;99.90;;;;;;4946423;28;20217;-77
2022/03/27 04:07:54;;;;;;;9.60;6.97;;;7.70;99.90;;;;;;4947075;28;20206;-78
2022/03/27 04:10:21;;;;;;;11.07;7.97;;;7.70;99.90;;;;;;4965141;28;20275;-79
2022/03/27 04:12:49;;;;;;;8.90;6.53;;;7.60;99.90;;;;;;4959630;28;20618;-78
2022/03/27 04:15:16;;;;;;;10.47;7.30;;;7.60;99.90;;;;;;4945719;29;20260;-77
2022/03/27 04:17:44;;;;;;;10.60;7.00;;;7.60;99.90;;;;;;4945606;29;20213;-77
2022/03/27 04:20:12;;;;;;;8.13;6.70;;;7.60;99.90;;;;;;4946180;29;20237;-79
2022/03/27 04:22:40;;;;;;;9.33;6.43;;;7.60;99.90;;;;;;4946011;28;20240;-79
2022/03/27 04:25:07;;;;;;;8.43;6.93;;;7.60;99.90;;;;;;4945461;29;20223;-78
2022/03/27 04:27:34;;;;;;;8.70;7.03;;;7.60;99.90;;;;;;4945589;28;20217;-77
2022/03/27 04:30:04;;;;;;;10.23;7.50;;;7.50;99.90;;;;;;4945496;28;20209;-77
2022/03/27 04:32:31;;;;;;;10.97;7.10;;;7.60;99.90;;;;;;4944254;29;20296;-78
2022/03/27 04:34:58;;;;;;;8.70;6.97;;;7.60;99.90;;;;;;4945281;29;20218;-78
2022/03/27 04:37:25;;;;;;;9.77;6.73;;;7.60;99.90;;;;;;4944584;28;20221;-78
2022/03/27 04:39:52;;;;;;;7.93;6.20;;;7.50;99.90;;;;;;4943682;29;20236;-78
2022/03/27 04:42:19;;;;;;;9.00;6.40;;;7.60;99.90;;;;;;4944823;29;20221;-77
2022/03/27 04:44:46;;;;;;;9.50;7.20;;;7.50;99.90;;;;;;4945281;28;20217;-79
2022/03/27 04:47:14;;;;;;;10.83;7.63;;;7.50;99.90;;;;;;4947096;28;21021;-79
2022/03/27 04:49:41;;;;;;;9.73;7.73;;;7.50;99.90;;;;;;4964513;28;20784;-79
2022/03/27 04:52:08;;;;;;;12.13;7.97;;;7.50;99.90;;;;;;4964171;28;20211;-79
2022/03/27 04:54:35;;;;;;;11.47;8.67;;;7.50;99.90;;;;;;4954382;28;20883;-79
2022/03/27 04:57:03;;;;;;;9.93;7.93;;;7.50;99.90;;;;;;4945306;28;20209;-77
2022/03/27 04:59:30;;;;;;;11.33;8.83;;;7.50;99.90;;;;;;4944814;29;20232;-78
2022/03/27 05:01:58;;;;;;;11.93;8.10;;;7.50;99.90;;;;;;4945234;28;20225;-77
2022/03/27 05:04:26;;;;;;;10.57;7.70;;;7.50;99.90;;;;;;4945134;29;20221;-79
2022/03/27 05:06:53;;;;;;;10.90;7.77;;;7.40;99.90;;;;;;4944646;28;20252;-78
2022/03/27 05:09:20;;;;;;;14.53;7.77;;;7.40;99.90;;;;;;4944648;29;20581;-78
2022/03/27 05:11:47;;;;;;;13.07;7.40;;;7.40;99.90;;;;;;4945200;28;20221;-78
2022/03/27 05:14:14;;;;;;;12.30;8.70;;;7.30;99.90;;;;;;4963477;28;20685;-78
2022/03/27 05:16:41;;;;;;;10.50;7.83;;;7.30;99.90;;;;;;4953416;28;20220;-78
2022/03/27 05:19:08;;;;;;;11.37;8.20;;;7.30;99.90;;;;;;4944659;29;20220;-79
2022/03/27 05:21:36;;;;;;;11.60;8.23;;;7.30;99.90;;;;;;4944637;28;20236;-78
2022/03/27 05:24:05;;;;;;;12.47;8.37;;;7.30;99.90;;;;;;4947949;29;20503;-77
2022/03/27 05:26:32;;;;;;;12.13;8.37;;;7.20;99.90;;;;;;4948524;29;20224;-76
2022/03/27 05:28:58;;;;;;;12.17;8.43;;;7.20;99.90;;;;;;4947901;28;20214;-77
2022/03/27 05:31:25;;;;;;;13.20;8.40;;;7.20;99.90;;;;;;4948394;29;20208;-77
2022/03/27 05:33:52;;;;;;;14.43;9.67;;;7.20;99.90;;;;;;4947880;28;20328;-78
2022/03/27 05:36:19;;;;;;;11.80;8.37;;;7.20;99.90;;;;;;4947460;29;20217;-77
2022/03/27 05:38:47;;;;;;;13.40;8.53;;;7.10;99.90;;;;;;4947663;28;20787;-77
2022/03/27 05:41:14;;;;;;;11.57;8.67;;;7.00;99.90;;;;;;4947535;28;20237;-77
2022/03/27 05:43:41;;;;;;;18.30;10.73;;;7.00;99.90;;;;;;4965514;28;20235;-77
2022/03/27 05:46:08;;;;;;;15.13;8.13;;;7.00;99.90;;;;;;4966683;28;20680;-76
2022/03/27 05:48:35;;;;;;;14.40;8.03;;;7.00;99.90;;;;;;4981448;28;20216;-79
2022/03/27 05:51:02;;;;;;;12.70;7.37;;;7.00;99.90;;;;;;4968367;28;20209;-77
2022/03/27 05:53:29;;;;;;;23.93;9.87;;;7.00;99.90;;;;;;4947306;29;20213;-78
2022/03/27 05:55:59;;;;;;;10.53;7.60;;;7.10;99.90;;;;;;4947294;29;20213;-78
2022/03/27 05:58:25;;;;;;;13.67;7.67;;;7.10;99.90;;;;;;4947406;28;20328;-78
2022/03/27 06:00:53;;;;;;;12.20;8.17;;;7.10;99.90;;;;;;4947537;29;20221;-79
2022/03/27 06:03:19;;;;;;;13.80;8.03;;;7.00;99.90;;;;;;4947256;29;20209;-79
2022/03/27 06:05:46;;;;;;;16.90;8.57;;;7.00;99.90;;;;;;4961119;28;20224;-78
2022/03/27 06:08:13;;;;;;;14.90;8.90;;;7.10;99.90;;;;;;4966484;28;20216;-80
2022/03/27 06:10:41;;;;;;;16.80;8.67;;;7.20;99.90;;;;;;4948052;29;20232;-78
2022/03/27 06:13:10;;;;;;;16.07;8.67;;;7.20;99.90;;;;;;4949031;29;20521;-80
2022/03/27 06:15:37;;;;;;;14.40;8.67;;;7.20;99.90;;;;;;4947126;28;20217;-79
2022/03/27 06:18:04;;;;;;;10.77;7.83;;;7.20;99.90;;;;;;4947397;29;20221;-80
2022/03/27 06:20:32;;;;;;;14.83;9.20;;;7.20;99.90;;;;;;4947870;29;20539;-79
2022/03/27 06:23:01;;;;;;;20.30;9.13;;;7.30;99.90;;;;;;4948307;28;20224;-78
2022/03/27 06:25:29;;;;;;;16.47;9.43;;;7.30;99.90;;;;;;4949275;29;20423;-79
2022/03/27 06:27:56;;;;;;;14.53;8.83;;;7.30;99.90;;;;;;4947995;29;20224;-80
2022/03/27 06:30:27;;;;;;;18.73;9.27;;;7.30;99.90;;;;;;4947101;28;20593;-80
2022/03/27 06:32:54;;;;;;;15.67;9.37;;;7.30;99.90;;;;;;4947468;28;20661;-80
2022/03/27 06:35:23;;;;;;;16.13;10.00;;;7.40;99.90;;;;;;4948039;28;20672;-80
2022/03/27 06:37:51;;;;;;;12.47;8.97;;;7.50;99.90;;;;;;4947574;29;20217;-81
2022/03/27 06:40:19;;;;;;;14.87;8.53;;;7.50;99.90;;;;;;4928618;28;20255;-79
2022/03/27 06:42:46;;;;;;;18.00;8.83;;;7.50;99.90;;;;;;4948175;29;20322;-80
2022/03/27 06:45:14;;;;;;;17.70;9.77;;;7.60;99.90;;;;;;4946794;29;20932;-81
2022/03/27 06:47:44;;;;;;;19.40;9.77;;;7.60;99.90;;;;;;4961587;28;20212;-81
2022/03/27 06:50:12;;;;;;;17.83;8.90;;;7.70;99.90;;;;;;4986221;28;20204;-80
2022/03/27 06:52:39;;;;;;;16.80;8.87;;;7.70;99.90;;;;;;4974200;28;20217;-80
2022/03/27 06:55:09;;;;;;;16.77;8.27;;;7.80;99.90;;;;;;4947258;29;20206;-79
2022/03/27 06:57:36;;;;;;;19.00;8.83;;;7.80;99.90;;;;;;4947239;28;20237;-81
2022/03/27 07:03:20;;;;;;;16.40;9.03;;;7.90;99.90;;;;;;4948002;29;20932;-80
2022/03/27 07:05:47;;;;;;;15.33;8.10;;;7.90;99.90;;;;;;4948066;29;20252;-80
2022/03/27 07:08:15;;;;;;;16.03;7.83;;;7.90;99.90;;;;;;4948154;28;20214;-82
2022/03/27 07:10:43;;;;;;;15.03;8.77;;;8.00;99.90;;;;;;4950302;29;20642;-83
2022/03/27 07:13:12;;;;;;;13.47;7.47;;;8.00;99.90;;;;;;4950226;28;20217;-82
2022/03/27 07:15:40;;;;;;;16.40;7.70;;;8.00;99.90;;;;;;4950262;29;20216;-81
2022/03/27 07:18:09;;;;;;;15.17;8.93;;;8.00;99.90;;;;;;4948865;28;20536;-83
2022/03/27 07:20:38;;;;;;;19.73;8.53;;;8.10;99.90;;;;;;4949325;29;20299;-83
2022/03/27 07:23:06;;;;;;;16.37;7.63;;;8.10;99.90;;;;;;4949363;29;20216;-83
2022/03/27 07:25:39;;;;;;;14.80;8.00;;;8.20;99.90;;;;;;4963164;28;20213;-84
2022/03/27 07:28:07;;;;;;;18.63;8.40;;;8.30;99.90;;;;;;4970237;28;20213;-82
2022/03/27 07:30:35;;;;;;;22.43;9.63;;;8.30;99.90;;;;;;4969308;28;20213;-84
2022/03/27 07:33:02;;;;;;;18.83;9.10;;;8.30;99.90;;;;;;4969955;28;20216;-82
2022/03/27 07:35:31;;;;;;;16.53;8.97;;;8.30;99.90;;;;;;4965269;28;20228;-85
2022/03/27 07:37:59;;;;;;;20.37;8.57;;;8.40;99.90;;;;;;4971222;28;20213;-85
2022/03/27 07:40:26;;;;;;;21.20;7.63;;;8.50;99.90;;;;;;4963451;28;20243;-82
2022/03/27 07:42:54;;;;;;;19.50;8.10;;;8.50;99.90;;;;;;4950391;29;20626;-84
2022/03/27 07:45:22;;;;;;;17.43;8.10;;;8.50;99.90;;;;;;4951165;28;20220;-83
2022/03/27 07:47:50;;;;;;;16.67;9.00;;;8.50;99.90;;;;;;4967183;28;20502;-85
2022/03/27 07:50:18;;;;;;;16.00;9.07;;;8.60;99.90;;;;;;4989044;28;20215;-83
2022/03/27 07:52:46;;;;;;;18.70;8.00;;;8.60;99.90;;;;;;4950841;28;20307;-83
2022/03/27 07:55:14;;;;;;;18.03;7.77;;;8.60;99.90;;;;;;4947709;29;20224;-84
2022/03/27 07:57:42;;;;;;;18.30;8.70;;;8.60;99.90;;;;;;4947630;28;20237;-82
2022/03/27 08:00:11;;;;;;;17.47;7.80;;;8.60;99.90;;;;;;4948554;29;20237;-83
2022/03/27 08:02:38;;;;;;;19.13;8.37;;;8.70;99.90;;;;;;4949285;28;20277;-86
2022/03/27 08:05:06;;;;;;;15.87;7.63;;;8.70;99.90;;;;;;4949220;29;20201;-84
2022/03/27 08:07:33;;;;;;;15.77;8.40;;;8.80;99.90;;;;;;4949915;29;20614;-83
2022/03/27 08:10:02;;;;;;;17.83;8.23;;;8.90;99.90;;;;;;4954201;28;20291;-81
2022/03/27 08:12:29;;;;;;;20.53;7.03;;;8.90;99.90;;;;;;4968169;28;20217;-83
2022/03/27 08:14:56;;;;;;;16.20;7.43;;;8.90;99.90;;;;;;4953182;28;20220;-83
2022/03/27 08:17:24;;;;;;;19.07;7.23;;;9.00;99.90;;;;;;4957800;28;20212;-83
2022/03/27 08:19:51;;;;;;;15.10;8.00;;;9.00;99.90;;;;;;4968033;28;20216;-86
2022/03/27 08:22:19;;;;;;;15.73;7.07;;;9.10;99.90;;;;;;4971266;28;20236;-84
2022/03/27 08:24:46;;;;;;;15.47;5.90;;;9.20;99.90;;;;;;4953434;28;20220;-85
2022/03/27 08:27:14;;;;;;;16.10;6.33;;;9.40;99.90;;;;;;4952493;29;20221;-83
2022/03/27 08:29:42;;;;;;;18.47;7.07;;;9.50;99.90;;;;;;4951636;29;20213;-85
2022/03/27 08:32:12;;;;;;;8.97;5.40;;;9.80;99.90;;;;;;4951378;28;20314;-85
2022/03/27 08:34:41;;;;;;;12.40;6.97;;;10.00;99.90;;;;;;4950024;28;20209;-84
2022/03/27 08:37:11;;;;;;;15.87;5.93;;;10.10;99.90;;;;;;4949926;29;20733;-81
2022/03/27 08:39:39;;;;;;;14.63;5.90;;;10.20;99.90;;;;;;4949547;29;20313;-82
2022/03/27 08:42:07;;;;;;;11.33;5.70;;;10.30;99.90;;;;;;4948006;28;20742;-79
2022/03/27 08:44:37;;;;;;;17.00;7.13;;;10.50;99.90;;;;;;4946570;29;20239;-82
2022/03/27 08:47:10;;;;;;;16.00;5.63;;;10.70;99.90;;;;;;4950330;28;20720;-80
2022/03/27 08:49:42;;;;;;;16.10;6.57;;;10.90;99.90;;;;;;4957717;28;20220;-81
2022/03/27 08:52:34;;;;;;;12.13;5.53;;;11.00;99.90;;;;;;4966050;28;20216;-81
2022/03/27 08:55:05;;;;;;;15.60;5.20;;;11.20;99.90;;;;;;4950037;28;20757;-83
2022/03/27 08:57:51;;;;;;;10.87;5.03;;;11.30;99.90;;;;;;4949127;28;20233;-85
2022/03/27 09:00:21;;;;;;;14.23;5.10;;;11.50;99.90;;;;;;4953274;28;20443;-83
2022/03/27 09:02:49;;;;;;;12.07;5.30;;;11.70;99.90;;;;;;4970465;28;20212;-81
2022/03/27 09:05:17;;;;;;;15.80;5.30;;;11.90;99.90;;;;;;4971005;28;20222;-83
2022/03/27 09:07:44;;;;;;;16.27;5.93;;;12.00;99.90;;;;;;4968992;28;20216;-81
2022/03/27 09:10:13;;;;;;;10.40;4.80;;;12.00;99.90;;;;;;4951489;29;20217;-82
2022/03/27 09:12:41;;;;;;;13.67;4.87;;;12.00;99.90;;;;;;4951231;28;20942;-84
2022/03/27 09:15:09;;;;;;;13.13;4.77;;;12.20;99.90;;;;;;4952924;29;20213;-83
2022/03/27 09:17:55;;;;;;;16.40;5.50;;;12.20;99.90;;;;;;4951961;29;20213;-82
2022/03/27 09:20:31;;;;;;;16.50;6.23;;;12.20;99.90;;;;;;4959147;28;20295;-80
2022/03/27 09:23:12;;;;;;;10.87;4.37;;;12.30;99.90;;;;;;4962127;28;20322;-84
2022/03/27 09:25:54;;;;;;;14.50;4.37;;;12.40;99.90;;;;;;4975847;28;20223;-80
2022/03/27 09:28:26;;;;;;;11.73;4.10;;;12.50;99.90;;;;;;4968250;28;20216;-81
2022/03/27 09:30:56;;;;;;;12.23;4.27;;;12.60;99.90;;;;;;4953741;28;20209;-82
2022/03/27 09:33:47;;;;;;;15.17;4.13;;;12.70;99.90;;;;;;4956395;28;20664;-83
2022/03/27 09:36:16;;;;;;;11.00;3.43;;;13.00;99.90;;;;;;4964532;28;20221;-81
2022/03/27 09:38:58;;;;;;;12.47;4.27;;;13.00;99.90;;;;;;4971508;28;20284;-79
2022/03/27 09:41:38;;;;;;;10.40;3.67;;;13.10;99.90;;;;;;4951418;28;20320;-83
2022/03/27 09:44:08;;;;;;;14.33;3.77;;;13.30;99.90;;;;;;4955212;29;20213;-81
2022/03/27 09:46:53;;;;;;;13.43;3.70;;;13.30;99.90;;;;;;4956180;29;20236;-82
2022/03/27 09:49:25;;;;;;;14.13;4.10;;;13.40;99.90;;;;;;4959786;28;20302;-82
2022/03/27 09:52:05;;;;;;;13.97;4.07;;;13.40;99.90;;;;;;4970281;28;20212;-82
2022/03/27 09:54:53;;;;;;;13.47;3.97;;;13.50;99.90;;;;;;4949762;29;20213;-83
2022/03/27 09:57:24;;;;;;;12.07;3.57;;;13.60;99.90;;;;;;4949969;28;20609;-81
2022/03/27 09:59:52;;;;;;;11.33;3.20;;;13.70;99.90;;;;;;4966682;28;20335;-82
2022/03/27 10:02:26;;;;;;;9.53;3.20;;;13.70;99.90;;;;;;4968155;28;20639;-81
2022/03/27 10:05:03;;;;;;;12.70;2.90;;;13.70;99.90;;;;;;4961758;28;20276;-81
2022/03/27 10:07:36;;;;;;;10.10;3.87;;;13.80;99.90;;;;;;4947971;28;20260;-82
2022/03/27 10:10:07;;;;;;;8.20;3.40;;;13.90;99.90;;;;;;4949020;28;20225;-82
2022/03/27 10:12:37;;;;;;;10.97;2.97;;;14.10;99.90;;;;;;4949173;29;20217;-82
2022/03/27 10:15:06;;;;;;;9.43;2.60;;;14.20;99.90;;;;;;4948975;28;20669;-83
2022/03/27 10:17:35;;;;;;;12.20;2.80;;;14.30;99.90;;;;;;4948370;29;20216;-83
2022/03/27 10:20:07;;;;;;;9.73;2.80;;;14.30;99.90;;;;;;4948584;29;20637;-82
2022/03/27 10:22:39;;;;;;;7.83;2.37;;;14.50;99.90;;;;;;4948361;29;20233;-81
2022/03/27 10:25:08;;;;;;;14.10;4.00;;;14.50;99.90;;;;;;4949066;28;20296;-81
2022/03/27 10:27:36;;;;;;;10.13;3.13;;;14.60;99.90;;;;;;4947892;29;20217;-81
2022/03/27 10:30:03;;;;;;;14.43;3.77;;;14.70;99.90;;;;;;4948236;28;20685;-81
2022/03/27 10:32:31;;;;;;;16.57;3.60;;;14.80;99.90;;;;;;4948325;29;20213;-81
2022/03/27 10:35:27;;;;;;;15.20;4.17;;;15.00;99.90;;;;;;4949137;29;20547;-79
2022/03/27 10:38:02;;;;;;;9.47;3.03;;;15.10;99.90;;;;;;4949820;28;20225;-81
2022/03/27 10:40:35;;;;;;;10.87;3.50;;;15.10;99.90;;;;;;4950990;28;20208;-87
2022/03/27 10:43:06;;;;;;;10.97;3.53;;;15.20;99.90;;;;;;4967241;28;20240;-82
2022/03/27 10:45:35;;;;;;;10.40;3.57;;;15.50;99.90;;;;;;4969602;28;20204;-82
2022/03/27 10:48:13;;;;;;;13.03;3.43;;;15.50;99.90;;;;;;4968917;28;20221;-82
2022/03/27 10:50:52;;;;;;;11.02;3.90;;;15.60;99.90;;;;;;4966862;28;20208;-81
2022/03/27 10:53:21;;;;;;;11.47;3.40;;;15.60;99.90;;;;;;4969320;28;20213;-81
2022/03/27 10:55:50;;;;;;;13.53;3.87;;;15.80;99.90;;;;;;4969051;28;20216;-82
2022/03/27 10:58:35;;;;;;;13.23;4.27;;;15.70;99.90;;;;;;4965264;28;20240;-82
2022/03/27 11:01:04;;;;;;;9.83;2.70;;;15.60;99.90;;;;;;4964551;28;20212;-82
2022/03/27 11:03:51;;;;;;;11.93;4.00;;;15.70;99.90;;;;;;4966220;28;20212;-81
2022/03/27 11:06:27;;;;;;;13.77;3.70;;;15.90;99.90;;;;;;4966230;28;20327;-82
2022/03/27 11:08:56;;;;;;;11.20;4.00;;;16.00;99.90;;;;;;4958523;28;20213;-82
2022/03/27 11:11:53;;;;;;;10.35;4.40;;;16.10;99.90;;;;;;4968447;28;20213;-81
2022/03/27 11:14:45;;;;;;;12.85;3.40;;;16.30;99.90;;;;;;4967588;28;20229;-85
2022/03/27 11:17:14;;;;;;;9.60;3.67;;;16.30;99.90;;;;;;4964693;28;20212;-83
2022/03/27 11:19:43;;;;;;;10.20;3.67;;;16.50;99.90;;;;;;4969008;28;20220;-81
2022/03/27 11:22:45;;;;;;;10.48;3.70;;;16.60;99.90;;;;;;4969269;28;20233;-83
2022/03/27 11:25:26;;;;;;;10.30;3.95;;;16.60;99.90;;;;;;4961024;28;20316;-85
2022/03/27 11:27:58;;;;;;;8.48;3.55;;;16.80;99.90;;;;;;4965954;28;20227;-81
2022/03/27 11:30:25;;;;;;;8.20;2.83;;;16.90;99.90;;;;;;4962389;28;20224;-81
2022/03/27 11:33:12;;;;;;;11.07;3.17;;;16.80;99.90;;;;;;4956422;28;20216;-81
2022/03/27 11:35:39;;;;;;;13.00;3.67;;;16.80;99.90;;;;;;4964996;28;20216;-83
2022/03/27 11:38:25;;;;;;;11.07;3.55;;;16.80;99.90;;;;;;4967684;28;20223;-82
2022/03/27 11:40:52;;;;;;;8.13;3.08;;;16.90;99.90;;;;;;4959752;28;20478;-81
2022/03/27 11:43:30;;;;;;;10.13;3.45;;;17.10;99.90;;;;;;4959068;28;20236;-81
2022/03/27 11:45:57;;;;;;;13.70;3.47;;;17.20;99.90;;;;;;4965883;28;20212;-81
2022/03/27 11:48:24;;;;;;;7.47;2.72;;;17.10;99.90;;;;;;4973669;28;20940;-80
2022/03/27 11:50:54;;;;;;;8.35;2.78;;;17.20;99.90;;;;;;4947853;29;20209;-82
2022/03/27 11:53:32;;;;;;;5.32;2.30;;;17.40;99.90;;;;;;4956038;28;20212;-80
2022/03/27 11:56:07;;;;;;;6.95;2.65;;;17.30;99.90;;;;;;4959320;28;20857;-81
2022/03/27 12:01:24;;;;;;;6.13;2.17;;;17.20;99.90;;;;;;5151946;27;21294;-79
2022/03/27 12:03:58;;;;;;;4.75;2.25;;;17.00;99.90;;;;;;5163589;27;20579;-81
2022/03/27 12:06:27;;;;;;;8.45;2.80;;;17.30;99.90;;;;;;5144622;27;20215;-79
2022/03/27 12:08:54;;;;;;;8.63;2.72;;;17.40;99.90;;;;;;5137424;27;20206;-82
2022/03/27 12:11:23;;;;;;;12.20;3.20;;;17.40;99.90;;;;;;5134932;27;20713;-83
2022/03/27 12:13:50;;;;;;;9.88;3.33;;;17.30;99.90;;;;;;5122812;27;20211;-81
2022/03/27 12:16:22;;;;;;;7.72;2.88;;;17.20;99.90;;;;;;5133407;27;20210;-81
2022/03/27 12:18:50;;;;;;;11.25;3.85;;;17.10;99.90;;;;;;5121471;27;20218;-81
2022/03/27 12:21:20;;;;;;;11.20;3.40;;;17.30;99.90;;;;;;5121587;27;20847;-81
2022/03/27 12:23:50;;;;;;;7.30;3.10;;;17.30;99.90;;;;;;5121779;27;20263;-81
2022/03/27 12:32:01;;;;;;;10.50;3.03;;;17.40;99.90;;;;;;5121604;27;20809;-81
2022/03/27 12:34:28;;;;;;;7.25;2.38;;;17.10;99.90;;;;;;5138325;27;20206;-81
2022/03/27 12:37:14;;;;;;;8.20;2.30;;;17.30;99.90;;;;;;5137580;27;20211;-81
2022/03/27 12:39:57;;;;;;;9.10;2.55;;;17.30;99.90;;;;;;5143329;27;20229;-81
2022/03/27 12:42:36;;;;;;;8.25;2.45;;;17.20;99.90;;;;;;5121314;27;20326;-81
2022/03/27 12:45:07;;;;;;;12.88;2.97;;;17.30;99.90;;;;;;5143318;27;20260;-81
2022/03/27 12:47:37;;;;;;;8.18;2.63;;;17.30;99.90;;;;;;5147472;27;20210;-84
2022/03/27 12:50:06;;;;;;;9.40;3.67;;;17.30;99.90;;;;;;5137579;27;20222;-82
2022/03/27 12:52:32;;;;;;;9.35;3.30;;;17.30;99.90;;;;;;5140094;27;20202;-82
2022/03/27 12:55:05;;;;;;;9.30;3.40;;;17.30;99.90;;;;;;5141838;27;20206;-84
2022/03/27 12:57:54;;;;;;;8.45;2.50;;;17.40;99.90;;;;;;5134772;27;20522;-80
2022/03/27 13:00:24;;;;;;;9.50;2.97;;;17.40;99.90;;;;;;5121992;27;20262;-83
2022/03/27 13:03:09;;;;;;;8.02;2.22;;;17.30;99.90;;;;;;5123197;27;20576;-83
2022/03/27 13:05:36;;;;;;;6.68;2.05;;;17.40;99.90;;;;;;5112081;27;20208;-80
2022/03/27 13:08:03;;;;;;;8.82;3.03;;;17.40;99.90;;;;;;5122490;27;20231;-83
2022/03/27 13:10:30;;;;;;;8.35;2.90;;;17.50;99.90;;;;;;5104774;28;20214;-82
2022/03/27 13:12:59;;;;;;;10.68;3.47;;;17.60;99.90;;;;;;5104041;28;20216;-81
2022/03/27 13:15:40;;;;;;;11.23;2.92;;;17.60;99.90;;;;;;5098730;28;20204;-83